Airport details for: EEKE (Estonia)

Metar

EEKE 280613Z AUTO 23009KT 200V270 9999NDV NCD 15/12 Q1016

General details

ICAO: EEKE
IATA: URE
Name (city): Kuressaare
Major:
Country: Estonia
vACC: VACC Estonia
Description:

Kuressaare Airport is an airport in Estonia, located on Saaremaa island.

Scenery links:
FS9 scenery: Download
FSX/P3D scenery:
XP scenery: Download
Elevation: 14 ft.
Transition altitude: 5000 ft.
MSA: 6500 ft.
Latitude: 58.23
Longitude: 22.509445
EEKE Charts
EEKE Notams
EEKE Online stations

Runways

Number Course Length Elevation Lat Lon ILS ILS freq ILS FAC GP
05 52° 2621ft / 799 m 11ft 58.229172 22.507175 - - 3.0°
17 173° 6562ft / 2000 m 10ft 58.241025 22.509336 109.9 173° 3.0°
23 232° 2621ft / 799 m 5ft 58.232897 22.5188 - - 3.0°
35 353° 6562ft / 2000 m 8ft 58.223069 22.509589 - - 3.0°